Hartford, Connecticut
Traffic Map
Current Weather Conditions
Hartford, Connecticut
Clear
Clear
30°
Feels Like: 30°
Wind Chill: 30° Ceiling: Unl
Heat Index: 30° Visibility: 10mi
Dew Point: Wind: 3mph
Humidity: 28% Direction: ° ()
Pressure: 30.54in Gusts: 0mph
Raw Report DataKHFD 231553Z VRB03KT 10SM CLR M01/M18 A3054 RMK AO2 SLP341 T10111178
Traffic Incident Summary
Active as of:
Severity:
Category:
InformationThere was an issue retrieving the traffic information for this location. Please try a different location or try again shortly.
Advertisements
Track Severe Weather on mobile